sensor_id;sensor_type;location;lat;lon;timestamp;P1;durP1;ratioP1;P2;durP2;ratioP2
36355;SDS011;22384;54.302;18.596;2022-08-01T00:00:41;4.50;;;3.20;;
36355;SDS011;22384;54.302;18.596;2022-08-01T00:03:08;8.57;;;2.85;;
36355;SDS011;22384;54.302;18.596;2022-08-01T00:05:34;5.38;;;2.90;;
36355;SDS011;22384;54.302;18.596;2022-08-01T00:08:00;6.45;;;3.33;;
36355;SDS011;22384;54.302;18.596;2022-08-01T00:10:27;6.65;;;2.58;;
36355;SDS011;22384;54.302;18.596;2022-08-01T00:12:53;7.40;;;2.80;;
36355;SDS011;22384;54.302;18.596;2022-08-01T00:15:19;7.35;;;3.03;;
36355;SDS011;22384;54.302;18.596;2022-08-01T00:17:45;7.63;;;2.90;;
36355;SDS011;22384;54.302;18.596;2022-08-01T00:20:12;7.68;;;3.10;;
36355;SDS011;22384;54.302;18.596;2022-08-01T00:22:41;7.78;;;3.00;;
36355;SDS011;22384;54.302;18.596;2022-08-01T00:25:07;5.53;;;2.72;;
36355;SDS011;22384;54.302;18.596;2022-08-01T00:27:33;6.13;;;3.40;;
36355;SDS011;22384;54.302;18.596;2022-08-01T00:30:00;5.18;;;3.10;;
36355;SDS011;22384;54.302;18.596;2022-08-01T00:32:26;5.95;;;3.00;;
36355;SDS011;22384;54.302;18.596;2022-08-01T00:34:52;8.35;;;3.03;;
36355;SDS011;22384;54.302;18.596;2022-08-01T00:37:18;5.75;;;3.05;;
36355;SDS011;22384;54.302;18.596;2022-08-01T00:39:45;6.70;;;3.38;;
36355;SDS011;22384;54.302;18.596;2022-08-01T00:42:11;4.55;;;2.90;;
36355;SDS011;22384;54.302;18.596;2022-08-01T00:44:38;7.20;;;3.15;;
36355;SDS011;22384;54.302;18.596;2022-08-01T00:47:04;5.13;;;2.95;;
36355;SDS011;22384;54.302;18.596;2022-08-01T00:49:31;6.60;;;3.28;;
36355;SDS011;22384;54.302;18.596;2022-08-01T00:51:57;6.45;;;3.78;;
36355;SDS011;22384;54.302;18.596;2022-08-01T00:54:25;6.75;;;3.05;;
36355;SDS011;22384;54.302;18.596;2022-08-01T00:56:53;6.47;;;2.95;;
36355;SDS011;22384;54.302;18.596;2022-08-01T00:59:22;7.75;;;3.17;;
36355;SDS011;22384;54.302;18.596;2022-08-01T01:01:49;6.53;;;3.08;;
36355;SDS011;22384;54.302;18.596;2022-08-01T01:04:16;6.05;;;3.05;;
36355;SDS011;22384;54.302;18.596;2022-08-01T01:14:16;5.75;;;3.15;;
36355;SDS011;22384;54.302;18.596;2022-08-01T01:16:45;5.25;;;3.03;;
36355;SDS011;22384;54.302;18.596;2022-08-01T01:19:13;7.57;;;3.33;;
36355;SDS011;22384;54.302;18.596;2022-08-01T01:32:04;5.20;;;2.95;;
36355;SDS011;22384;54.302;18.596;2022-08-01T01:34:31;5.22;;;2.78;;
36355;SDS011;22384;54.302;18.596;2022-08-01T01:36:59;5.68;;;3.10;;
36355;SDS011;22384;54.302;18.596;2022-08-01T01:39:27;4.72;;;2.80;;
36355;SDS011;22384;54.302;18.596;2022-08-01T01:41:54;6.20;;;2.88;;
36355;SDS011;22384;54.302;18.596;2022-08-01T01:44:21;4.20;;;2.80;;
36355;SDS011;22384;54.302;18.596;2022-08-01T01:46:47;6.88;;;2.97;;
36355;SDS011;22384;54.302;18.596;2022-08-01T01:49:14;4.20;;;2.45;;
36355;SDS011;22384;54.302;18.596;2022-08-01T01:51:42;5.05;;;2.45;;
36355;SDS011;22384;54.302;18.596;2022-08-01T01:54:09;7.40;;;3.28;;
36355;SDS011;22384;54.302;18.596;2022-08-01T01:56:35;7.97;;;3.22;;
36355;SDS011;22384;54.302;18.596;2022-08-01T01:59:15;4.63;;;2.97;;
36355;SDS011;22384;54.302;18.596;2022-08-01T02:01:44;5.00;;;2.97;;
36355;SDS011;22384;54.302;18.596;2022-08-01T02:04:12;3.70;;;2.90;;
36355;SDS011;22384;54.302;18.596;2022-08-01T02:06:38;10.95;;;3.00;;
36355;SDS011;22384;54.302;18.596;2022-08-01T02:09:05;4.60;;;2.35;;
36355;SDS011;22384;54.302;18.596;2022-08-01T02:11:33;3.55;;;2.45;;
36355;SDS011;22384;54.302;18.596;2022-08-01T02:14:01;4.55;;;2.70;;
36355;SDS011;22384;54.302;18.596;2022-08-01T02:16:35;2.53;;;2.20;;
36355;SDS011;22384;54.302;18.596;2022-08-01T02:19:02;6.10;;;2.97;;
36355;SDS011;22384;54.302;18.596;2022-08-01T02:21:39;6.00;;;2.75;;
36355;SDS011;22384;54.302;18.596;2022-08-01T02:26:42;4.38;;;2.40;;
36355;SDS011;22384;54.302;18.596;2022-08-01T02:29:10;5.00;;;2.22;;
36355;SDS011;22384;54.302;18.596;2022-08-01T02:31:39;5.03;;;2.35;;
36355;SDS011;22384;54.302;18.596;2022-08-01T02:34:10;5.43;;;2.25;;
36355;SDS011;22384;54.302;18.596;2022-08-01T02:36:39;6.65;;;2.30;;
36355;SDS011;22384;54.302;18.596;2022-08-01T02:39:08;5.28;;;2.53;;
36355;SDS011;22384;54.302;18.596;2022-08-01T02:41:39;4.22;;;2.10;;
36355;SDS011;22384;54.302;18.596;2022-08-01T02:44:08;2.85;;;1.98;;
36355;SDS011;22384;54.302;18.596;2022-08-01T02:46:46;4.97;;;2.95;;
36355;SDS011;22384;54.302;18.596;2022-08-01T02:49:15;2.60;;;1.90;;
36355;SDS011;22384;54.302;18.596;2022-08-01T02:51:44;2.95;;;2.53;;
36355;SDS011;22384;54.302;18.596;2022-08-01T02:54:12;3.22;;;2.28;;
36355;SDS011;22384;54.302;18.596;2022-08-01T02:56:40;3.38;;;2.35;;
36355;SDS011;22384;54.302;18.596;2022-08-01T02:59:09;8.15;;;2.75;;
36355;SDS011;22384;54.302;18.596;2022-08-01T03:01:36;3.28;;;2.33;;
36355;SDS011;22384;54.302;18.596;2022-08-01T03:04:04;5.57;;;2.30;;
36355;SDS011;22384;54.302;18.596;2022-08-01T03:06:31;3.25;;;2.20;;
36355;SDS011;22384;54.302;18.596;2022-08-01T03:08:58;5.28;;;2.35;;
36355;SDS011;22384;54.302;18.596;2022-08-01T03:11:25;3.75;;;2.55;;
36355;SDS011;22384;54.302;18.596;2022-08-01T03:13:52;4.57;;;2.60;;
36355;SDS011;22384;54.302;18.596;2022-08-01T03:16:19;2.83;;;2.30;;
36355;SDS011;22384;54.302;18.596;2022-08-01T03:18:46;5.53;;;2.50;;
36355;SDS011;22384;54.302;18.596;2022-08-01T03:21:14;4.35;;;2.55;;
36355;SDS011;22384;54.302;18.596;2022-08-01T03:23:41;3.97;;;2.13;;
36355;SDS011;22384;54.302;18.596;2022-08-01T03:26:08;2.80;;;2.15;;
36355;SDS011;22384;54.302;18.596;2022-08-01T03:28:35;2.95;;;2.13;;
36355;SDS011;22384;54.302;18.596;2022-08-01T03:31:03;6.22;;;2.42;;
36355;SDS011;22384;54.302;18.596;2022-08-01T03:33:29;6.47;;;2.50;;
36355;SDS011;22384;54.302;18.596;2022-08-01T03:35:55;2.85;;;2.38;;
36355;SDS011;22384;54.302;18.596;2022-08-01T03:38:24;6.72;;;2.28;;
36355;SDS011;22384;54.302;18.596;2022-08-01T03:40:58;4.22;;;2.45;;
36355;SDS011;22384;54.302;18.596;2022-08-01T03:43:30;8.18;;;2.00;;
36355;SDS011;22384;54.302;18.596;2022-08-01T03:46:01;5.75;;;1.92;;
36355;SDS011;22384;54.302;18.596;2022-08-01T03:48:30;7.20;;;2.20;;
36355;SDS011;22384;54.302;18.596;2022-08-01T03:51:00;3.90;;;1.80;;
36355;SDS011;22384;54.302;18.596;2022-08-01T03:53:28;5.13;;;2.00;;
36355;SDS011;22384;54.302;18.596;2022-08-01T03:55:55;2.65;;;2.05;;
36355;SDS011;22384;54.302;18.596;2022-08-01T03:58:22;4.90;;;2.10;;
36355;SDS011;22384;54.302;18.596;2022-08-01T04:00:48;7.57;;;2.90;;
36355;SDS011;22384;54.302;18.596;2022-08-01T04:03:14;6.35;;;2.05;;
36355;SDS011;22384;54.302;18.596;2022-08-01T04:05:41;4.57;;;1.90;;
36355;SDS011;22384;54.302;18.596;2022-08-01T04:08:08;7.18;;;2.10;;
36355;SDS011;22384;54.302;18.596;2022-08-01T04:10:34;6.75;;;2.00;;
36355;SDS011;22384;54.302;18.596;2022-08-01T04:13:01;6.85;;;2.20;;
36355;SDS011;22384;54.302;18.596;2022-08-01T04:15:27;6.32;;;1.80;;
36355;SDS011;22384;54.302;18.596;2022-08-01T04:17:54;3.05;;;1.90;;
36355;SDS011;22384;54.302;18.596;2022-08-01T04:20:20;3.15;;;1.73;;
36355;SDS011;22384;54.302;18.596;2022-08-01T04:22:47;2.92;;;1.75;;
36355;SDS011;22384;54.302;18.596;2022-08-01T04:25:17;3.15;;;1.83;;
36355;SDS011;22384;54.302;18.596;2022-08-01T04:27:46;5.60;;;2.00;;
36355;SDS011;22384;54.302;18.596;2022-08-01T04:30:13;3.17;;;1.83;;
36355;SDS011;22384;54.302;18.596;2022-08-01T04:32:40;9.23;;;1.73;;
36355;SDS011;22384;54.302;18.596;2022-08-01T04:35:10;4.97;;;2.10;;
36355;SDS011;22384;54.302;18.596;2022-08-01T04:37:37;5.18;;;2.00;;
36355;SDS011;22384;54.302;18.596;2022-08-01T04:40:11;2.30;;;1.90;;
36355;SDS011;22384;54.302;18.596;2022-08-01T04:42:51;6.22;;;2.10;;
36355;SDS011;22384;54.302;18.596;2022-08-01T04:45:17;4.10;;;1.60;;
36355;SDS011;22384;54.302;18.596;2022-08-01T04:47:44;6.60;;;1.80;;
36355;SDS011;22384;54.302;18.596;2022-08-01T04:50:13;5.28;;;1.75;;
36355;SDS011;22384;54.302;18.596;2022-08-01T04:52:39;2.75;;;1.60;;
36355;SDS011;22384;54.302;18.596;2022-08-01T04:55:08;3.45;;;1.67;;
36355;SDS011;22384;54.302;18.596;2022-08-01T04:57:36;6.38;;;1.60;;
36355;SDS011;22384;54.302;18.596;2022-08-01T05:00:03;3.80;;;1.45;;
36355;SDS011;22384;54.302;18.596;2022-08-01T05:02:31;3.92;;;1.45;;
36355;SDS011;22384;54.302;18.596;2022-08-01T05:04:58;2.25;;;1.40;;
36355;SDS011;22384;54.302;18.596;2022-08-01T05:07:24;5.75;;;1.50;;
36355;SDS011;22384;54.302;18.596;2022-08-01T05:09:50;3.55;;;1.60;;
36355;SDS011;22384;54.302;18.596;2022-08-01T05:12:17;2.72;;;1.42;;
36355;SDS011;22384;54.302;18.596;2022-08-01T05:14:43;4.82;;;1.33;;
36355;SDS011;22384;54.302;18.596;2022-08-01T05:17:11;4.70;;;1.70;;
36355;SDS011;22384;54.302;18.596;2022-08-01T05:19:37;8.95;;;1.90;;
36355;SDS011;22384;54.302;18.596;2022-08-01T05:22:05;4.28;;;1.65;;
36355;SDS011;22384;54.302;18.596;2022-08-01T05:24:32;8.63;;;2.33;;
36355;SDS011;22384;54.302;18.596;2022-08-01T05:26:58;8.48;;;1.90;;
36355;SDS011;22384;54.302;18.596;2022-08-01T05:29:25;8.50;;;2.10;;
36355;SDS011;22384;54.302;18.596;2022-08-01T05:31:51;6.28;;;2.00;;
36355;SDS011;22384;54.302;18.596;2022-08-01T05:34:18;3.70;;;2.00;;
36355;SDS011;22384;54.302;18.596;2022-08-01T05:36:44;6.55;;;2.90;;
36355;SDS011;22384;54.302;18.596;2022-08-01T05:39:11;8.35;;;1.90;;
36355;SDS011;22384;54.302;18.596;2022-08-01T05:41:37;2.95;;;1.58;;
36355;SDS011;22384;54.302;18.596;2022-08-01T05:44:03;3.03;;;1.40;;
36355;SDS011;22384;54.302;18.596;2022-08-01T05:46:29;6.57;;;1.60;;
36355;SDS011;22384;54.302;18.596;2022-08-01T05:49:00;5.93;;;1.50;;
36355;SDS011;22384;54.302;18.596;2022-08-01T05:53:53;7.65;;;1.90;;
36355;SDS011;22384;54.302;18.596;2022-08-01T05:56:19;6.38;;;1.48;;
36355;SDS011;22384;54.302;18.596;2022-08-01T05:58:47;4.50;;;1.63;;
36355;SDS011;22384;54.302;18.596;2022-08-01T06:01:14;8.43;;;1.80;;
36355;SDS011;22384;54.302;18.596;2022-08-01T06:03:41;3.00;;;1.45;;
36355;SDS011;22384;54.302;18.596;2022-08-01T06:06:07;3.65;;;1.25;;
36355;SDS011;22384;54.302;18.596;2022-08-01T06:08:33;8.95;;;1.90;;
36355;SDS011;22384;54.302;18.596;2022-08-01T06:10:59;11.73;;;1.50;;
36355;SDS011;22384;54.302;18.596;2022-08-01T06:13:26;5.03;;;1.63;;
36355;SDS011;22384;54.302;18.596;2022-08-01T06:15:52;3.90;;;1.60;;
36355;SDS011;22384;54.302;18.596;2022-08-01T06:18:19;4.00;;;1.55;;
36355;SDS011;22384;54.302;18.596;2022-08-01T06:20:45;3.97;;;1.27;;
36355;SDS011;22384;54.302;18.596;2022-08-01T06:23:11;4.55;;;1.40;;
36355;SDS011;22384;54.302;18.596;2022-08-01T06:25:38;4.00;;;1.33;;
36355;SDS011;22384;54.302;18.596;2022-08-01T06:28:05;11.38;;;2.13;;
36355;SDS011;22384;54.302;18.596;2022-08-01T06:30:31;2.50;;;1.52;;
36355;SDS011;22384;54.302;18.596;2022-08-01T06:32:57;10.05;;;1.50;;
36355;SDS011;22384;54.302;18.596;2022-08-01T06:35:27;4.85;;;1.50;;
36355;SDS011;22384;54.302;18.596;2022-08-01T06:37:55;5.65;;;1.90;;
36355;SDS011;22384;54.302;18.596;2022-08-01T06:40:21;7.22;;;1.33;;
36355;SDS011;22384;54.302;18.596;2022-08-01T06:42:47;2.65;;;1.23;;
36355;SDS011;22384;54.302;18.596;2022-08-01T06:45:15;1.38;;;1.20;;
36355;SDS011;22384;54.302;18.596;2022-08-01T06:47:42;5.68;;;1.42;;
36355;SDS011;22384;54.302;18.596;2022-08-01T06:50:08;6.70;;;1.25;;
36355;SDS011;22384;54.302;18.596;2022-08-01T06:52:35;8.45;;;1.30;;
36355;SDS011;22384;54.302;18.596;2022-08-01T06:55:03;3.17;;;1.30;;
36355;SDS011;22384;54.302;18.596;2022-08-01T06:57:29;3.92;;;1.50;;
36355;SDS011;22384;54.302;18.596;2022-08-01T06:59:56;3.15;;;1.30;;
36355;SDS011;22384;54.302;18.596;2022-08-01T07:02:22;5.07;;;1.40;;
36355;SDS011;22384;54.302;18.596;2022-08-01T07:04:48;6.25;;;1.20;;
36355;SDS011;22384;54.302;18.596;2022-08-01T07:07:15;6.07;;;1.27;;
36355;SDS011;22384;54.302;18.596;2022-08-01T07:09:41;3.13;;;1.13;;
36355;SDS011;22384;54.302;18.596;2022-08-01T07:12:07;5.75;;;1.52;;
36355;SDS011;22384;54.302;18.596;2022-08-01T07:14:34;2.30;;;1.30;;
36355;SDS011;22384;54.302;18.596;2022-08-01T07:17:00;5.05;;;0.80;;
36355;SDS011;22384;54.302;18.596;2022-08-01T07:19:26;6.60;;;1.30;;
36355;SDS011;22384;54.302;18.596;2022-08-01T07:21:52;6.53;;;1.33;;
36355;SDS011;22384;54.302;18.596;2022-08-01T07:24:19;3.75;;;1.23;;
36355;SDS011;22384;54.302;18.596;2022-08-01T07:26:46;1.58;;;1.42;;
36355;SDS011;22384;54.302;18.596;2022-08-01T07:29:12;5.07;;;1.05;;
36355;SDS011;22384;54.302;18.596;2022-08-01T07:31:39;3.65;;;1.08;;
36355;SDS011;22384;54.302;18.596;2022-08-01T07:34:05;5.50;;;0.90;;
36355;SDS011;22384;54.302;18.596;2022-08-01T07:36:31;3.80;;;1.27;;
36355;SDS011;22384;54.302;18.596;2022-08-01T07:38:57;4.13;;;1.00;;
36355;SDS011;22384;54.302;18.596;2022-08-01T07:41:24;4.97;;;1.33;;
36355;SDS011;22384;54.302;18.596;2022-08-01T07:43:50;2.13;;;1.08;;
36355;SDS011;22384;54.302;18.596;2022-08-01T07:46:16;5.00;;;1.20;;
36355;SDS011;22384;54.302;18.596;2022-08-01T07:48:43;4.32;;;1.00;;
36355;SDS011;22384;54.302;18.596;2022-08-01T07:51:09;1.40;;;0.82;;
36355;SDS011;22384;54.302;18.596;2022-08-01T07:53:37;2.92;;;1.00;;
36355;SDS011;22384;54.302;18.596;2022-08-01T07:56:03;2.40;;;1.10;;
36355;SDS011;22384;54.302;18.596;2022-08-01T07:58:31;2.50;;;0.90;;
36355;SDS011;22384;54.302;18.596;2022-08-01T08:00:57;3.10;;;1.25;;
36355;SDS011;22384;54.302;18.596;2022-08-01T08:03:24;2.55;;;1.10;;
36355;SDS011;22384;54.302;18.596;2022-08-01T08:05:50;3.28;;;1.08;;
36355;SDS011;22384;54.302;18.596;2022-08-01T08:08:16;4.53;;;1.05;;
36355;SDS011;22384;54.302;18.596;2022-08-01T08:10:43;2.63;;;0.80;;
36355;SDS011;22384;54.302;18.596;2022-08-01T08:13:09;6.93;;;1.20;;
36355;SDS011;22384;54.302;18.596;2022-08-01T08:15:35;11.80;;;1.10;;
36355;SDS011;22384;54.302;18.596;2022-08-01T08:18:04;2.05;;;0.90;;
36355;SDS011;22384;54.302;18.596;2022-08-01T08:20:31;2.20;;;1.23;;
36355;SDS011;22384;54.302;18.596;2022-08-01T08:22:57;4.00;;;1.15;;
36355;SDS011;22384;54.302;18.596;2022-08-01T08:25:25;1.30;;;0.93;;
36355;SDS011;22384;54.302;18.596;2022-08-01T08:27:54;2.33;;;0.95;;
36355;SDS011;22384;54.302;18.596;2022-08-01T08:30:21;3.80;;;1.00;;
36355;SDS011;22384;54.302;18.596;2022-08-01T08:32:48;2.97;;;0.88;;
36355;SDS011;22384;54.302;18.596;2022-08-01T08:35:14;5.00;;;1.10;;
36355;SDS011;22384;54.302;18.596;2022-08-01T08:37:40;1.20;;;0.80;;
36355;SDS011;22384;54.302;18.596;2022-08-01T08:40:07;2.15;;;0.98;;
36355;SDS011;22384;54.302;18.596;2022-08-01T08:42:33;1.42;;;0.90;;
36355;SDS011;22384;54.302;18.596;2022-08-01T08:45:00;6.05;;;1.20;;
36355;SDS011;22384;54.302;18.596;2022-08-01T08:47:26;3.08;;;1.27;;
36355;SDS011;22384;54.302;18.596;2022-08-01T08:49:54;9.52;;;1.38;;
36355;SDS011;22384;54.302;18.596;2022-08-01T08:52:21;2.45;;;0.90;;
36355;SDS011;22384;54.302;18.596;2022-08-01T08:54:49;3.03;;;0.90;;
36355;SDS011;22384;54.302;18.596;2022-08-01T08:57:15;5.05;;;1.00;;
36355;SDS011;22384;54.302;18.596;2022-08-01T08:59:44;4.40;;;1.45;;
36355;SDS011;22384;54.302;18.596;2022-08-01T09:02:10;4.18;;;0.80;;
36355;SDS011;22384;54.302;18.596;2022-08-01T09:04:37;1.33;;;0.90;;
36355;SDS011;22384;54.302;18.596;2022-08-01T09:07:05;3.50;;;1.17;;
36355;SDS011;22384;54.302;18.596;2022-08-01T09:09:33;5.03;;;0.95;;
36355;SDS011;22384;54.302;18.596;2022-08-01T09:12:00;2.60;;;0.90;;
36355;SDS011;22384;54.302;18.596;2022-08-01T09:14:26;1.05;;;0.77;;
36355;SDS011;22384;54.302;18.596;2022-08-01T09:17:08;4.78;;;1.20;;
36355;SDS011;22384;54.302;18.596;2022-08-01T09:19:43;2.47;;;1.10;;
36355;SDS011;22384;54.302;18.596;2022-08-01T09:22:10;4.93;;;1.00;;
36355;SDS011;22384;54.302;18.596;2022-08-01T09:24:37;2.15;;;1.08;;
36355;SDS011;22384;54.302;18.596;2022-08-01T09:27:17;2.20;;;1.02;;
36355;SDS011;22384;54.302;18.596;2022-08-01T09:29:44;2.67;;;0.80;;
36355;SDS011;22384;54.302;18.596;2022-08-01T09:32:10;0.77;;;0.77;;
36355;SDS011;22384;54.302;18.596;2022-08-01T09:34:36;3.60;;;0.93;;
36355;SDS011;22384;54.302;18.596;2022-08-01T09:37:03;3.55;;;1.00;;
36355;SDS011;22384;54.302;18.596;2022-08-01T09:39:32;2.65;;;1.15;;
36355;SDS011;22384;54.302;18.596;2022-08-01T09:42:00;4.30;;;0.82;;
36355;SDS011;22384;54.302;18.596;2022-08-01T09:44:39;5.82;;;1.00;;
36355;SDS011;22384;54.302;18.596;2022-08-01T09:47:05;2.97;;;1.00;;
36355;SDS011;22384;54.302;18.596;2022-08-01T09:49:33;3.50;;;1.13;;
36355;SDS011;22384;54.302;18.596;2022-08-01T09:52:09;5.35;;;1.23;;
36355;SDS011;22384;54.302;18.596;2022-08-01T09:54:36;5.78;;;1.38;;
36355;SDS011;22384;54.302;18.596;2022-08-01T09:59:35;10.80;;;1.65;;
36355;SDS011;22384;54.302;18.596;2022-08-01T10:02:03;2.05;;;1.10;;
36355;SDS011;22384;54.302;18.596;2022-08-01T10:04:29;3.13;;;1.30;;
36355;SDS011;22384;54.302;18.596;2022-08-01T10:07:03;8.65;;;1.45;;
36355;SDS011;22384;54.302;18.596;2022-08-01T10:09:30;7.22;;;1.52;;
36355;SDS011;22384;54.302;18.596;2022-08-01T10:11:56;2.83;;;1.20;;
36355;SDS011;22384;54.302;18.596;2022-08-01T10:14:25;7.45;;;1.38;;
36355;SDS011;22384;54.302;18.596;2022-08-01T10:16:52;5.72;;;1.40;;
36355;SDS011;22384;54.302;18.596;2022-08-01T10:19:20;21.02;;;2.53;;
36355;SDS011;22384;54.302;18.596;2022-08-01T10:21:47;24.45;;;2.13;;
36355;SDS011;22384;54.302;18.596;2022-08-01T10:24:16;3.70;;;1.23;;
36355;SDS011;22384;54.302;18.596;2022-08-01T10:26:42;2.13;;;1.30;;
36355;SDS011;22384;54.302;18.596;2022-08-01T10:29:09;4.13;;;1.33;;
36355;SDS011;22384;54.302;18.596;2022-08-01T10:31:36;6.63;;;1.15;;
36355;SDS011;22384;54.302;18.596;2022-08-01T10:34:03;5.35;;;1.20;;
36355;SDS011;22384;54.302;18.596;2022-08-01T10:36:30;12.60;;;1.60;;
36355;SDS011;22384;54.302;18.596;2022-08-01T10:38:57;3.95;;;1.50;;
36355;SDS011;22384;54.302;18.596;2022-08-01T10:41:24;11.75;;;2.15;;
36355;SDS011;22384;54.302;18.596;2022-08-01T10:44:11;15.52;;;1.88;;
36355;SDS011;22384;54.302;18.596;2022-08-01T10:46:38;9.75;;;1.42;;
36355;SDS011;22384;54.302;18.596;2022-08-01T10:49:15;7.00;;;1.13;;
36355;SDS011;22384;54.302;18.596;2022-08-01T10:51:42;4.88;;;1.25;;
36355;SDS011;22384;54.302;18.596;2022-08-01T10:54:10;5.60;;;1.08;;
36355;SDS011;22384;54.302;18.596;2022-08-01T10:56:40;2.80;;;1.30;;
36355;SDS011;22384;54.302;18.596;2022-08-01T10:59:09;5.28;;;1.13;;
36355;SDS011;22384;54.302;18.596;2022-08-01T11:01:38;8.80;;;1.40;;
36355;SDS011;22384;54.302;18.596;2022-08-01T11:09:00;5.95;;;1.30;;
36355;SDS011;22384;54.302;18.596;2022-08-01T11:11:27;3.42;;;1.38;;
36355;SDS011;22384;54.302;18.596;2022-08-01T11:16:38;9.93;;;1.52;;
36355;SDS011;22384;54.302;18.596;2022-08-01T11:19:05;12.57;;;1.48;;
36355;SDS011;22384;54.302;18.596;2022-08-01T11:29:43;6.30;;;1.15;;
36355;SDS011;22384;54.302;18.596;2022-08-01T11:32:30;2.20;;;1.10;;
36355;SDS011;22384;54.302;18.596;2022-08-01T11:34:56;8.80;;;1.45;;
36355;SDS011;22384;54.302;18.596;2022-08-01T11:37:26;1.58;;;0.90;;
36355;SDS011;22384;54.302;18.596;2022-08-01T11:42:38;3.78;;;1.17;;
36355;SDS011;22384;54.302;18.596;2022-08-01T11:45:05;4.63;;;1.60;;
36355;SDS011;22384;54.302;18.596;2022-08-01T11:47:44;3.90;;;1.00;;
36355;SDS011;22384;54.302;18.596;2022-08-01T11:53:02;1.65;;;1.00;;
36355;SDS011;22384;54.302;18.596;2022-08-01T11:55:29;4.70;;;1.15;;
36355;SDS011;22384;54.302;18.596;2022-08-01T11:57:59;2.67;;;1.52;;
36355;SDS011;22384;54.302;18.596;2022-08-01T12:00:25;7.97;;;1.45;;
36355;SDS011;22384;54.302;18.596;2022-08-01T12:03:03;13.80;;;1.40;;
36355;SDS011;22384;54.302;18.596;2022-08-01T12:08:29;1.92;;;1.00;;
36355;SDS011;22384;54.302;18.596;2022-08-01T12:11:05;3.38;;;1.00;;
36355;SDS011;22384;54.302;18.596;2022-08-01T12:16:39;6.38;;;1.50;;
36355;SDS011;22384;54.302;18.596;2022-08-01T12:19:08;5.03;;;1.33;;
36355;SDS011;22384;54.302;18.596;2022-08-01T12:21:41;8.80;;;1.65;;
36355;SDS011;22384;54.302;18.596;2022-08-01T12:24:07;1.17;;;1.02;;
36355;SDS011;22384;54.302;18.596;2022-08-01T12:26:43;3.50;;;1.13;;
36355;SDS011;22384;54.302;18.596;2022-08-01T12:29:30;5.60;;;1.40;;
36355;SDS011;22384;54.302;18.596;2022-08-01T12:34:53;5.90;;;1.58;;
36355;SDS011;22384;54.302;18.596;2022-08-01T12:37:23;5.63;;;1.20;;
36355;SDS011;22384;54.302;18.596;2022-08-01T12:39:49;4.13;;;1.20;;
36355;SDS011;22384;54.302;18.596;2022-08-01T12:42:16;3.97;;;1.40;;
36355;SDS011;22384;54.302;18.596;2022-08-01T12:44:43;4.90;;;1.30;;
36355;SDS011;22384;54.302;18.596;2022-08-01T12:47:10;7.40;;;1.27;;
36355;SDS011;22384;54.302;18.596;2022-08-01T12:49:37;9.20;;;1.30;;
36355;SDS011;22384;54.302;18.596;2022-08-01T12:52:05;4.90;;;1.60;;
36355;SDS011;22384;54.302;18.596;2022-08-01T12:54:59;1.85;;;1.10;;
36355;SDS011;22384;54.302;18.596;2022-08-01T12:57:23;5.28;;;1.08;;
36355;SDS011;22384;54.302;18.596;2022-08-01T12:59:52;5.90;;;1.10;;
36355;SDS011;22384;54.302;18.596;2022-08-01T13:02:21;4.30;;;1.10;;
36355;SDS011;22384;54.302;18.596;2022-08-01T13:04:57;2.50;;;1.20;;
36355;SDS011;22384;54.302;18.596;2022-08-01T13:07:34;6.40;;;1.15;;
36355;SDS011;22384;54.302;18.596;2022-08-01T13:10:03;3.60;;;0.90;;
36355;SDS011;22384;54.302;18.596;2022-08-01T13:12:33;6.20;;;1.42;;
36355;SDS011;22384;54.302;18.596;2022-08-01T13:17:47;5.40;;;1.08;;
36355;SDS011;22384;54.302;18.596;2022-08-01T13:20:24;3.33;;;1.10;;
36355;SDS011;22384;54.302;18.596;2022-08-01T13:23:12;2.60;;;1.00;;
36355;SDS011;22384;54.302;18.596;2022-08-01T13:25:49;2.15;;;1.00;;
36355;SDS011;22384;54.302;18.596;2022-08-01T13:28:19;6.13;;;1.48;;
36355;SDS011;22384;54.302;18.596;2022-08-01T13:30:52;7.75;;;1.60;;
36355;SDS011;22384;54.302;18.596;2022-08-01T13:33:19;4.78;;;1.30;;
36355;SDS011;22384;54.302;18.596;2022-08-01T13:35:45;2.88;;;1.45;;
36355;SDS011;22384;54.302;18.596;2022-08-01T13:38:13;2.53;;;1.00;;
36355;SDS011;22384;54.302;18.596;2022-08-01T13:40:39;10.95;;;1.38;;
36355;SDS011;22384;54.302;18.596;2022-08-01T13:43:05;7.00;;;1.83;;
36355;SDS011;22384;54.302;18.596;2022-08-01T13:45:32;5.00;;;1.50;;
36355;SDS011;22384;54.302;18.596;2022-08-01T13:47:58;10.18;;;1.40;;
36355;SDS011;22384;54.302;18.596;2022-08-01T13:50:24;4.07;;;1.33;;
36355;SDS011;22384;54.302;18.596;2022-08-01T13:52:50;3.63;;;1.30;;
36355;SDS011;22384;54.302;18.596;2022-08-01T13:55:17;4.90;;;1.08;;
36355;SDS011;22384;54.302;18.596;2022-08-01T13:57:43;7.55;;;1.30;;
36355;SDS011;22384;54.302;18.596;2022-08-01T14:00:09;4.85;;;1.20;;
36355;SDS011;22384;54.302;18.596;2022-08-01T14:02:35;5.47;;;1.38;;
36355;SDS011;22384;54.302;18.596;2022-08-01T14:05:02;6.63;;;1.17;;
36355;SDS011;22384;54.302;18.596;2022-08-01T14:07:28;3.90;;;1.10;;
36355;SDS011;22384;54.302;18.596;2022-08-01T14:09:54;1.92;;;0.98;;
36355;SDS011;22384;54.302;18.596;2022-08-01T14:12:21;5.72;;;1.20;;
36355;SDS011;22384;54.302;18.596;2022-08-01T14:14:47;7.28;;;1.20;;
36355;SDS011;22384;54.302;18.596;2022-08-01T14:17:13;5.95;;;1.30;;
36355;SDS011;22384;54.302;18.596;2022-08-01T14:19:40;1.33;;;1.13;;
36355;SDS011;22384;54.302;18.596;2022-08-01T14:22:06;3.85;;;1.10;;
36355;SDS011;22384;54.302;18.596;2022-08-01T14:24:32;7.32;;;1.38;;
36355;SDS011;22384;54.302;18.596;2022-08-01T14:26:58;3.70;;;0.88;;
36355;SDS011;22384;54.302;18.596;2022-08-01T14:29:25;3.78;;;0.77;;
36355;SDS011;22384;54.302;18.596;2022-08-01T14:31:52;7.28;;;1.17;;
36355;SDS011;22384;54.302;18.596;2022-08-01T14:34:18;6.80;;;1.27;;
36355;SDS011;22384;54.302;18.596;2022-08-01T14:36:44;6.68;;;1.30;;
36355;SDS011;22384;54.302;18.596;2022-08-01T14:39:11;5.13;;;1.20;;
36355;SDS011;22384;54.302;18.596;2022-08-01T14:41:37;2.20;;;1.02;;
36355;SDS011;22384;54.302;18.596;2022-08-01T14:44:04;11.18;;;1.50;;
36355;SDS011;22384;54.302;18.596;2022-08-01T14:46:30;5.28;;;1.23;;
36355;SDS011;22384;54.302;18.596;2022-08-01T14:48:57;4.97;;;1.30;;
36355;SDS011;22384;54.302;18.596;2022-08-01T14:51:23;2.97;;;1.00;;
36355;SDS011;22384;54.302;18.596;2022-08-01T14:53:49;3.55;;;1.20;;
36355;SDS011;22384;54.302;18.596;2022-08-01T14:56:16;6.53;;;0.90;;
36355;SDS011;22384;54.302;18.596;2022-08-01T14:58:43;3.88;;;1.08;;
36355;SDS011;22384;54.302;18.596;2022-08-01T15:01:09;6.13;;;1.55;;
36355;SDS011;22384;54.302;18.596;2022-08-01T15:03:35;3.97;;;1.27;;
36355;SDS011;22384;54.302;18.596;2022-08-01T15:06:01;6.13;;;1.40;;
36355;SDS011;22384;54.302;18.596;2022-08-01T15:08:28;4.70;;;1.52;;
36355;SDS011;22384;54.302;18.596;2022-08-01T15:10:55;3.67;;;1.50;;
36355;SDS011;22384;54.302;18.596;2022-08-01T15:13:21;6.85;;;1.70;;
36355;SDS011;22384;54.302;18.596;2022-08-01T15:15:47;10.75;;;1.83;;
36355;SDS011;22384;54.302;18.596;2022-08-01T15:18:13;4.10;;;1.50;;
36355;SDS011;22384;54.302;18.596;2022-08-01T15:20:40;8.95;;;1.90;;
36355;SDS011;22384;54.302;18.596;2022-08-01T15:23:07;4.57;;;1.65;;
36355;SDS011;22384;54.302;18.596;2022-08-01T15:25:33;4.32;;;1.30;;
36355;SDS011;22384;54.302;18.596;2022-08-01T15:27:59;5.05;;;1.40;;
36355;SDS011;22384;54.302;18.596;2022-08-01T15:30:25;4.40;;;1.42;;
36355;SDS011;22384;54.302;18.596;2022-08-01T15:32:51;2.58;;;1.50;;
36355;SDS011;22384;54.302;18.596;2022-08-01T15:35:18;1.58;;;0.98;;